Sedco Energy — ELXM2 — position and weather

sailwx.info

Track history (hours):
 
Tides and Currents Weather Stations Pressure Air Temp Water Temp Dewpoint Dewpoint Depression Visibility Wind Speed Wind Dir Waves Ship Positions

Sedco Energy

Last reported at 2018-Feb-12 07:42 UTC. Time now 2018-Feb-19 16:17 UTC.
Position N 37°30' E 025°48'.

Length 125 m; draft 16 m.

Type: Ship. MMSI: 636011195.

Date/timePositionNaut miles runAvg speedWind from/ knotsBaromVisibWave heightAir tempDewpointWater temp
2018-Feb-12 07:42N 37°30' E 025°48'1 4.3
2018-Feb-12 07:28N 37°29' E 025°48'3 5.9
2018-Feb-12 07:00N 37°26' E 025°49'2 5.0
2018-Feb-12 06:30N 37°25' E 025°52'2 4.0
2018-Feb-12 06:00N 37°23' E 025°54'  
2018-Feb-07 07:00N 36°13' E 014°44'3 6.7
2018-Feb-07 06:30N 36°13' E 014°40'3 6.7
2018-Feb-07 05:59N 36°14' E 014°36'3 6.6
2018-Feb-07 05:30N 36°15' E 014°32'4 6.7
2018-Feb-07 04:59N 36°16' E 014°27'3 6.8
2018-Feb-07 04:29N 36°16' E 014°23'3 6.8
2018-Feb-07 04:00N 36°18' E 014°20'3 6.7
2018-Feb-07 03:29N 36°19' E 014°16'3 6.7
2018-Feb-07 03:00N 36°20' E 014°12'4 7.0
2018-Feb-07 02:30N 36°21' E 014°08'3 6.8
2018-Feb-07 02:00N 36°22' E 014°04'3 6.6
2018-Feb-07 01:30N 36°23' E 013°60'3 6.7
2018-Feb-07 01:00N 36°24' E 013°56'3 6.8
2018-Feb-07 00:30N 36°26' E 013°52'3 6.6
2018-Feb-07 00:00N 36°27' E 013°49'3 6.5
2018-Feb-06 23:30N 36°29' E 013°45'3 6.3
2018-Feb-06 22:59N 36°30' E 013°41'3 6.1
2018-Feb-06 22:30N 36°31' E 013°38'3 6.0
2018-Feb-06 22:00N 36°33' E 013°35'3 5.8
2018-Feb-06 21:30N 36°34' E 013°31'3 5.7
2018-Feb-06 20:59N 36°35' E 013°28'3 5.8
2018-Feb-06 20:30N 36°36' E 013°25'3 5.9
2018-Feb-06 20:00N 36°37' E 013°21'3 6.2
2018-Feb-06 19:30N 36°38' E 013°18'271 6.4
2018-Feb-05 00:53N 37°40' E 007°47'3 7.3
2018-Feb-05 00:30N 37°40' E 007°43'4 7.5
2018-Feb-05 00:00N 37°39' E 007°39'4 7.3
2018-Feb-04 23:30N 37°38' E 007°34'3 6.8
2018-Feb-04 23:00N 37°38' E 007°30'3 6.5
2018-Feb-04 22:30N 37°37' E 007°26'3 6.2
2018-Feb-04 22:00N 37°37' E 007°22'3 5.7
2018-Feb-04 21:30N 37°37' E 007°18'  
Track history (hours):
 
Tides and Currents Weather Stations Pressure Air Temp Water Temp Dewpoint Dewpoint Depression Visibility Wind Speed Wind Dir Waves Ship Positions

Sedco Energy

Last reported at 2018-Feb-12 07:42 UTC. Time now 2018-Feb-19 16:17 UTC.
Position N 37°30' E 025°48'.

Length 125 m; draft 16 m.

Type: Ship. MMSI: 636011195.

Date/timePositionNaut miles runAvg speedWind from/ knotsBaromVisibWave heightAir tempDewpointWater temp
2018-Feb-12 07:42N 37°30' E 025°48'1 4.3
2018-Feb-12 07:28N 37°29' E 025°48'3 5.9
2018-Feb-12 07:00N 37°26' E 025°49'2 5.0
2018-Feb-12 06:30N 37°25' E 025°52'2 4.0
2018-Feb-12 06:00N 37°23' E 025°54'  
2018-Feb-07 07:00N 36°13' E 014°44'3 6.7
2018-Feb-07 06:30N 36°13' E 014°40'3 6.7
2018-Feb-07 05:59N 36°14' E 014°36'3 6.6
2018-Feb-07 05:30N 36°15' E 014°32'4 6.7
2018-Feb-07 04:59N 36°16' E 014°27'3 6.8
2018-Feb-07 04:29N 36°16' E 014°23'3 6.8
2018-Feb-07 04:00N 36°18' E 014°20'3 6.7
2018-Feb-07 03:29N 36°19' E 014°16'3 6.7
2018-Feb-07 03:00N 36°20' E 014°12'4 7.0
2018-Feb-07 02:30N 36°21' E 014°08'3 6.8
2018-Feb-07 02:00N 36°22' E 014°04'3 6.6
2018-Feb-07 01:30N 36°23' E 013°60'3 6.7
2018-Feb-07 01:00N 36°24' E 013°56'3 6.8
2018-Feb-07 00:30N 36°26' E 013°52'3 6.6
2018-Feb-07 00:00N 36°27' E 013°49'3 6.5
2018-Feb-06 23:30N 36°29' E 013°45'3 6.3
2018-Feb-06 22:59N 36°30' E 013°41'3 6.1
2018-Feb-06 22:30N 36°31' E 013°38'3 6.0
2018-Feb-06 22:00N 36°33' E 013°35'3 5.8
2018-Feb-06 21:30N 36°34' E 013°31'3 5.7
2018-Feb-06 20:59N 36°35' E 013°28'3 5.8
2018-Feb-06 20:30N 36°36' E 013°25'3 5.9
2018-Feb-06 20:00N 36°37' E 013°21'3 6.2
2018-Feb-06 19:30N 36°38' E 013°18'271 6.4
2018-Feb-05 00:53N 37°40' E 007°47'3 7.3
2018-Feb-05 00:30N 37°40' E 007°43'4 7.5
2018-Feb-05 00:00N 37°39' E 007°39'4 7.3
2018-Feb-04 23:30N 37°38' E 007°34'3 6.8
2018-Feb-04 23:00N 37°38' E 007°30'3 6.5
2018-Feb-04 22:30N 37°37' E 007°26'3 6.2
2018-Feb-04 22:00N 37°37' E 007°22'3 5.7
2018-Feb-04 21:30N 37°37' E 007°18'  

Dump ship's entire track history